sensor_id;sensor_type;location;lat;lon;timestamp;P1;durP1;ratioP1;P2;durP2;ratioP2
10260;SDS011;5175;42.606;23.388;2022-10-16T00:00:44;5.70;;;5.20;;
10260;SDS011;5175;42.606;23.388;2022-10-16T00:03:11;5.93;;;5.33;;
10260;SDS011;5175;42.606;23.388;2022-10-16T00:05:38;6.40;;;5.30;;
10260;SDS011;5175;42.606;23.388;2022-10-16T00:08:06;6.00;;;5.33;;
10260;SDS011;5175;42.606;23.388;2022-10-16T00:10:35;7.03;;;5.90;;
10260;SDS011;5175;42.606;23.388;2022-10-16T00:13:02;7.27;;;5.80;;
10260;SDS011;5175;42.606;23.388;2022-10-16T00:15:29;8.17;;;6.37;;
10260;SDS011;5175;42.606;23.388;2022-10-16T00:17:56;7.53;;;6.10;;
10260;SDS011;5175;42.606;23.388;2022-10-16T00:20:22;6.37;;;5.77;;
10260;SDS011;5175;42.606;23.388;2022-10-16T00:22:49;6.70;;;6.07;;
10260;SDS011;5175;42.606;23.388;2022-10-16T00:25:16;6.50;;;5.90;;
10260;SDS011;5175;42.606;23.388;2022-10-16T00:27:44;9.70;;;6.10;;
10260;SDS011;5175;42.606;23.388;2022-10-16T00:30:11;7.77;;;6.70;;
10260;SDS011;5175;42.606;23.388;2022-10-16T00:32:37;8.07;;;6.80;;
10260;SDS011;5175;42.606;23.388;2022-10-16T00:35:04;7.00;;;6.30;;
10260;SDS011;5175;42.606;23.388;2022-10-16T00:37:32;7.37;;;6.47;;
10260;SDS011;5175;42.606;23.388;2022-10-16T00:39:58;8.57;;;6.20;;
10260;SDS011;5175;42.606;23.388;2022-10-16T00:42:25;7.63;;;6.37;;
10260;SDS011;5175;42.606;23.388;2022-10-16T00:44:54;8.10;;;5.97;;
10260;SDS011;5175;42.606;23.388;2022-10-16T00:47:24;7.37;;;6.37;;
10260;SDS011;5175;42.606;23.388;2022-10-16T00:49:56;7.20;;;5.70;;
10260;SDS011;5175;42.606;23.388;2022-10-16T00:52:28;8.60;;;6.63;;
10260;SDS011;5175;42.606;23.388;2022-10-16T00:54:55;9.03;;;6.70;;
10260;SDS011;5175;42.606;23.388;2022-10-16T00:57:23;8.40;;;6.90;;
10260;SDS011;5175;42.606;23.388;2022-10-16T00:59:51;9.40;;;6.87;;
10260;SDS011;5175;42.606;23.388;2022-10-16T01:02:20;8.17;;;7.20;;
10260;SDS011;5175;42.606;23.388;2022-10-16T01:04:48;8.63;;;6.70;;
10260;SDS011;5175;42.606;23.388;2022-10-16T01:07:20;7.37;;;6.67;;
10260;SDS011;5175;42.606;23.388;2022-10-16T01:09:59;7.73;;;6.50;;
10260;SDS011;5175;42.606;23.388;2022-10-16T01:12:34;6.73;;;6.00;;
10260;SDS011;5175;42.606;23.388;2022-10-16T01:15:08;7.63;;;6.07;;
10260;SDS011;5175;42.606;23.388;2022-10-16T01:17:45;8.60;;;5.93;;
10260;SDS011;5175;42.606;23.388;2022-10-16T01:20:20;6.77;;;6.07;;
10260;SDS011;5175;42.606;23.388;2022-10-16T01:23:04;6.80;;;6.10;;
10260;SDS011;5175;42.606;23.388;2022-10-16T01:28:28;8.17;;;6.30;;
10260;SDS011;5175;42.606;23.388;2022-10-16T01:31:00;10.77;;;7.33;;
10260;SDS011;5175;42.606;23.388;2022-10-16T01:33:30;12.23;;;9.30;;
10260;SDS011;5175;42.606;23.388;2022-10-16T01:36:02;10.97;;;9.23;;
10260;SDS011;5175;42.606;23.388;2022-10-16T01:38:36;11.03;;;9.63;;
10260;SDS011;5175;42.606;23.388;2022-10-16T01:41:06;9.70;;;8.63;;
10260;SDS011;5175;42.606;23.388;2022-10-16T01:43:37;8.97;;;7.20;;
10260;SDS011;5175;42.606;23.388;2022-10-16T01:46:09;11.00;;;8.50;;
10260;SDS011;5175;42.606;23.388;2022-10-16T01:48:39;9.70;;;7.73;;
10260;SDS011;5175;42.606;23.388;2022-10-16T01:51:07;9.53;;;8.40;;
10260;SDS011;5175;42.606;23.388;2022-10-16T01:53:37;9.87;;;7.27;;
10260;SDS011;5175;42.606;23.388;2022-10-16T01:56:07;8.83;;;7.93;;
10260;SDS011;5175;42.606;23.388;2022-10-16T01:58:36;9.07;;;7.40;;
10260;SDS011;5175;42.606;23.388;2022-10-16T02:01:07;8.17;;;7.37;;
10260;SDS011;5175;42.606;23.388;2022-10-16T02:03:37;9.30;;;7.23;;
10260;SDS011;5175;42.606;23.388;2022-10-16T02:06:08;8.57;;;7.20;;
10260;SDS011;5175;42.606;23.388;2022-10-16T02:08:35;8.07;;;6.70;;
10260;SDS011;5175;42.606;23.388;2022-10-16T02:11:05;8.30;;;6.83;;
10260;SDS011;5175;42.606;23.388;2022-10-16T02:13:33;9.17;;;7.17;;
10260;SDS011;5175;42.606;23.388;2022-10-16T02:16:05;9.10;;;6.97;;
10260;SDS011;5175;42.606;23.388;2022-10-16T02:18:32;7.90;;;6.77;;
10260;SDS011;5175;42.606;23.388;2022-10-16T02:21:00;8.53;;;6.97;;
10260;SDS011;5175;42.606;23.388;2022-10-16T02:23:34;8.40;;;6.53;;
10260;SDS011;5175;42.606;23.388;2022-10-16T02:26:07;7.47;;;6.43;;
10260;SDS011;5175;42.606;23.388;2022-10-16T02:28:38;7.87;;;6.67;;
10260;SDS011;5175;42.606;23.388;2022-10-16T02:31:11;7.47;;;6.57;;
10260;SDS011;5175;42.606;23.388;2022-10-16T02:33:40;8.37;;;6.83;;
10260;SDS011;5175;42.606;23.388;2022-10-16T02:36:09;8.07;;;7.23;;
10260;SDS011;5175;42.606;23.388;2022-10-16T02:38:40;8.10;;;6.87;;
10260;SDS011;5175;42.606;23.388;2022-10-16T02:41:07;7.40;;;6.70;;
10260;SDS011;5175;42.606;23.388;2022-10-16T02:43:34;7.70;;;6.93;;
10260;SDS011;5175;42.606;23.388;2022-10-16T02:46:01;7.90;;;7.13;;
10260;SDS011;5175;42.606;23.388;2022-10-16T02:48:29;8.73;;;7.23;;
10260;SDS011;5175;42.606;23.388;2022-10-16T02:50:56;7.67;;;6.87;;
10260;SDS011;5175;42.606;23.388;2022-10-16T02:53:23;8.00;;;7.20;;
10260;SDS011;5175;42.606;23.388;2022-10-16T02:55:49;7.73;;;6.93;;
10260;SDS011;5175;42.606;23.388;2022-10-16T02:58:16;9.40;;;7.63;;
10260;SDS011;5175;42.606;23.388;2022-10-16T03:00:43;7.73;;;7.00;;
10260;SDS011;5175;42.606;23.388;2022-10-16T03:03:10;7.80;;;7.10;;
10260;SDS011;5175;42.606;23.388;2022-10-16T03:05:38;7.90;;;7.17;;
10260;SDS011;5175;42.606;23.388;2022-10-16T03:08:04;7.63;;;6.83;;
10260;SDS011;5175;42.606;23.388;2022-10-16T03:10:31;8.20;;;7.27;;
10260;SDS011;5175;42.606;23.388;2022-10-16T03:12:58;7.77;;;6.97;;
10260;SDS011;5175;42.606;23.388;2022-10-16T03:15:25;11.83;;;9.30;;
10260;SDS011;5175;42.606;23.388;2022-10-16T03:17:53;11.87;;;8.43;;
10260;SDS011;5175;42.606;23.388;2022-10-16T03:20:20;8.23;;;6.70;;
10260;SDS011;5175;42.606;23.388;2022-10-16T03:22:48;7.03;;;6.40;;
10260;SDS011;5175;42.606;23.388;2022-10-16T03:25:15;9.97;;;7.13;;
10260;SDS011;5175;42.606;23.388;2022-10-16T03:27:41;7.77;;;6.97;;
10260;SDS011;5175;42.606;23.388;2022-10-16T03:30:09;8.33;;;7.33;;
10260;SDS011;5175;42.606;23.388;2022-10-16T03:32:36;8.40;;;6.77;;
10260;SDS011;5175;42.606;23.388;2022-10-16T03:35:03;8.20;;;7.40;;
10260;SDS011;5175;42.606;23.388;2022-10-16T03:37:30;7.60;;;6.90;;
10260;SDS011;5175;42.606;23.388;2022-10-16T03:39:58;8.77;;;7.67;;
10260;SDS011;5175;42.606;23.388;2022-10-16T03:42:25;7.97;;;7.17;;
10260;SDS011;5175;42.606;23.388;2022-10-16T03:44:51;8.83;;;7.80;;
10260;SDS011;5175;42.606;23.388;2022-10-16T03:47:18;8.93;;;7.57;;
10260;SDS011;5175;42.606;23.388;2022-10-16T03:49:46;9.70;;;8.23;;
10260;SDS011;5175;42.606;23.388;2022-10-16T03:52:13;8.33;;;7.53;;
10260;SDS011;5175;42.606;23.388;2022-10-16T03:54:40;9.60;;;8.57;;
10260;SDS011;5175;42.606;23.388;2022-10-16T03:57:08;9.23;;;8.37;;
10260;SDS011;5175;42.606;23.388;2022-10-16T03:59:35;9.83;;;8.83;;
10260;SDS011;5175;42.606;23.388;2022-10-16T04:02:01;11.03;;;9.17;;
10260;SDS011;5175;42.606;23.388;2022-10-16T04:04:28;10.60;;;9.10;;
10260;SDS011;5175;42.606;23.388;2022-10-16T04:06:55;9.73;;;8.67;;
10260;SDS011;5175;42.606;23.388;2022-10-16T04:09:22;10.07;;;9.03;;
10260;SDS011;5175;42.606;23.388;2022-10-16T04:11:48;10.07;;;9.07;;
10260;SDS011;5175;42.606;23.388;2022-10-16T04:14:17;10.00;;;8.87;;
10260;SDS011;5175;42.606;23.388;2022-10-16T04:16:43;11.63;;;9.70;;
10260;SDS011;5175;42.606;23.388;2022-10-16T04:19:10;10.20;;;9.10;;
10260;SDS011;5175;42.606;23.388;2022-10-16T04:21:37;10.87;;;9.77;;
10260;SDS011;5175;42.606;23.388;2022-10-16T04:24:04;10.60;;;9.47;;
10260;SDS011;5175;42.606;23.388;2022-10-16T04:26:31;12.63;;;10.00;;
10260;SDS011;5175;42.606;23.388;2022-10-16T04:28:57;11.17;;;9.23;;
10260;SDS011;5175;42.606;23.388;2022-10-16T04:31:25;11.43;;;8.90;;
10260;SDS011;5175;42.606;23.388;2022-10-16T04:33:52;9.60;;;8.70;;
10260;SDS011;5175;42.606;23.388;2022-10-16T04:36:19;9.80;;;8.73;;
10260;SDS011;5175;42.606;23.388;2022-10-16T04:38:46;10.17;;;8.60;;
10260;SDS011;5175;42.606;23.388;2022-10-16T04:41:12;9.90;;;8.90;;
10260;SDS011;5175;42.606;23.388;2022-10-16T04:43:39;10.67;;;9.57;;
10260;SDS011;5175;42.606;23.388;2022-10-16T04:46:06;10.77;;;9.67;;
10260;SDS011;5175;42.606;23.388;2022-10-16T04:48:34;12.20;;;9.47;;
10260;SDS011;5175;42.606;23.388;2022-10-16T04:51:01;10.33;;;9.23;;
10260;SDS011;5175;42.606;23.388;2022-10-16T04:53:27;11.67;;;9.03;;
10260;SDS011;5175;42.606;23.388;2022-10-16T04:55:54;10.07;;;9.10;;
10260;SDS011;5175;42.606;23.388;2022-10-16T04:58:22;12.40;;;8.83;;
10260;SDS011;5175;42.606;23.388;2022-10-16T05:00:49;12.07;;;9.43;;
10260;SDS011;5175;42.606;23.388;2022-10-16T05:03:16;11.63;;;9.00;;
10260;SDS011;5175;42.606;23.388;2022-10-16T05:05:44;10.73;;;8.33;;
10260;SDS011;5175;42.606;23.388;2022-10-16T05:08:11;11.90;;;8.67;;
10260;SDS011;5175;42.606;23.388;2022-10-16T05:10:40;10.10;;;8.97;;
10260;SDS011;5175;42.606;23.388;2022-10-16T05:13:07;10.60;;;9.50;;
10260;SDS011;5175;42.606;23.388;2022-10-16T05:15:34;10.60;;;9.50;;
10260;SDS011;5175;42.606;23.388;2022-10-16T05:18:01;11.33;;;10.13;;
10260;SDS011;5175;42.606;23.388;2022-10-16T05:20:28;11.97;;;10.30;;
10260;SDS011;5175;42.606;23.388;2022-10-16T05:22:56;11.23;;;9.73;;
10260;SDS011;5175;42.606;23.388;2022-10-16T05:25:23;11.70;;;10.50;;
10260;SDS011;5175;42.606;23.388;2022-10-16T05:27:50;11.23;;;10.13;;
10260;SDS011;5175;42.606;23.388;2022-10-16T05:30:17;12.40;;;10.27;;
10260;SDS011;5175;42.606;23.388;2022-10-16T05:32:46;11.87;;;10.37;;
10260;SDS011;5175;42.606;23.388;2022-10-16T05:35:13;11.27;;;9.80;;
10260;SDS011;5175;42.606;23.388;2022-10-16T05:37:40;10.33;;;9.23;;
10260;SDS011;5175;42.606;23.388;2022-10-16T05:40:09;11.30;;;9.27;;
10260;SDS011;5175;42.606;23.388;2022-10-16T05:42:36;9.87;;;8.87;;
10260;SDS011;5175;42.606;23.388;2022-10-16T05:45:04;10.90;;;9.80;;
10260;SDS011;5175;42.606;23.388;2022-10-16T05:47:31;10.83;;;9.73;;
10260;SDS011;5175;42.606;23.388;2022-10-16T05:49:58;11.20;;;10.07;;
10260;SDS011;5175;42.606;23.388;2022-10-16T05:52:26;11.17;;;9.83;;
10260;SDS011;5175;42.606;23.388;2022-10-16T05:54:52;10.57;;;9.57;;
10260;SDS011;5175;42.606;23.388;2022-10-16T05:57:21;11.07;;;9.20;;
10260;SDS011;5175;42.606;23.388;2022-10-16T05:59:47;11.43;;;9.40;;
10260;SDS011;5175;42.606;23.388;2022-10-16T06:02:14;10.23;;;8.47;;
10260;SDS011;5175;42.606;23.388;2022-10-16T06:04:41;11.00;;;9.33;;
10260;SDS011;5175;42.606;23.388;2022-10-16T06:07:08;12.07;;;8.90;;
10260;SDS011;5175;42.606;23.388;2022-10-16T06:09:34;9.70;;;8.70;;
10260;SDS011;5175;42.606;23.388;2022-10-16T06:12:01;9.57;;;8.57;;
10260;SDS011;5175;42.606;23.388;2022-10-16T06:14:29;9.90;;;8.50;;
10260;SDS011;5175;42.606;23.388;2022-10-16T06:16:56;9.30;;;8.40;;
10260;SDS011;5175;42.606;23.388;2022-10-16T06:19:23;8.90;;;8.00;;
10260;SDS011;5175;42.606;23.388;2022-10-16T06:21:50;9.63;;;8.63;;
10260;SDS011;5175;42.606;23.388;2022-10-16T06:24:16;8.20;;;7.47;;
10260;SDS011;5175;42.606;23.388;2022-10-16T06:26:43;8.53;;;7.73;;
10260;SDS011;5175;42.606;23.388;2022-10-16T06:29:10;8.23;;;7.40;;
10260;SDS011;5175;42.606;23.388;2022-10-16T06:31:38;7.97;;;7.27;;
10260;SDS011;5175;42.606;23.388;2022-10-16T06:34:05;8.50;;;7.70;;
10260;SDS011;5175;42.606;23.388;2022-10-16T06:36:34;7.57;;;6.87;;
10260;SDS011;5175;42.606;23.388;2022-10-16T06:39:01;7.60;;;6.90;;
10260;SDS011;5175;42.606;23.388;2022-10-16T06:41:28;8.27;;;7.47;;
10260;SDS011;5175;42.606;23.388;2022-10-16T06:43:54;8.57;;;7.63;;
10260;SDS011;5175;42.606;23.388;2022-10-16T06:46:22;8.27;;;7.47;;
10260;SDS011;5175;42.606;23.388;2022-10-16T06:48:52;7.60;;;6.83;;
10260;SDS011;5175;42.606;23.388;2022-10-16T06:51:19;8.13;;;7.43;;
10260;SDS011;5175;42.606;23.388;2022-10-16T06:53:47;7.70;;;7.00;;
10260;SDS011;5175;42.606;23.388;2022-10-16T06:56:16;6.97;;;6.27;;
10260;SDS011;5175;42.606;23.388;2022-10-16T06:58:43;6.90;;;6.20;;
10260;SDS011;5175;42.606;23.388;2022-10-16T07:01:11;7.03;;;6.33;;
10260;SDS011;5175;42.606;23.388;2022-10-16T07:03:40;7.37;;;6.60;;
10260;SDS011;5175;42.606;23.388;2022-10-16T07:06:10;7.20;;;6.60;;
10260;SDS011;5175;42.606;23.388;2022-10-16T07:08:39;7.00;;;6.23;;
10260;SDS011;5175;42.606;23.388;2022-10-16T07:11:08;7.47;;;6.70;;
10260;SDS011;5175;42.606;23.388;2022-10-16T07:13:36;7.30;;;6.40;;
10260;SDS011;5175;42.606;23.388;2022-10-16T07:16:04;6.97;;;6.37;;
10260;SDS011;5175;42.606;23.388;2022-10-16T07:18:31;6.60;;;6.00;;
10260;SDS011;5175;42.606;23.388;2022-10-16T07:21:02;6.87;;;6.00;;
10260;SDS011;5175;42.606;23.388;2022-10-16T07:23:31;7.33;;;6.50;;
10260;SDS011;5175;42.606;23.388;2022-10-16T07:25:58;7.03;;;6.37;;
10260;SDS011;5175;42.606;23.388;2022-10-16T07:28:25;6.77;;;6.13;;
10260;SDS011;5175;42.606;23.388;2022-10-16T07:30:52;7.30;;;6.60;;
10260;SDS011;5175;42.606;23.388;2022-10-16T07:33:19;7.30;;;6.50;;
10260;SDS011;5175;42.606;23.388;2022-10-16T07:35:49;7.40;;;6.70;;
10260;SDS011;5175;42.606;23.388;2022-10-16T07:38:17;6.73;;;6.03;;
10260;SDS011;5175;42.606;23.388;2022-10-16T07:40:45;6.53;;;5.93;;
10260;SDS011;5175;42.606;23.388;2022-10-16T07:43:13;6.83;;;5.63;;
10260;SDS011;5175;42.606;23.388;2022-10-16T07:45:47;6.70;;;6.10;;
10260;SDS011;5175;42.606;23.388;2022-10-16T07:48:14;9.63;;;6.37;;
10260;SDS011;5175;42.606;23.388;2022-10-16T07:50:41;6.73;;;5.90;;
10260;SDS011;5175;42.606;23.388;2022-10-16T07:53:08;8.67;;;6.13;;
10260;SDS011;5175;42.606;23.388;2022-10-16T07:55:35;7.47;;;5.97;;
10260;SDS011;5175;42.606;23.388;2022-10-16T07:58:03;6.77;;;6.10;;
10260;SDS011;5175;42.606;23.388;2022-10-16T08:00:30;8.53;;;7.20;;
10260;SDS011;5175;42.606;23.388;2022-10-16T08:02:57;10.07;;;7.80;;
10260;SDS011;5175;42.606;23.388;2022-10-16T08:05:25;13.67;;;8.40;;
10260;SDS011;5175;42.606;23.388;2022-10-16T08:07:52;9.37;;;7.60;;
10260;SDS011;5175;42.606;23.388;2022-10-16T08:10:20;10.53;;;8.10;;
10260;SDS011;5175;42.606;23.388;2022-10-16T08:12:50;8.30;;;7.40;;
10260;SDS011;5175;42.606;23.388;2022-10-16T08:15:18;8.77;;;7.03;;
10260;SDS011;5175;42.606;23.388;2022-10-16T08:17:53;8.47;;;7.63;;
10260;SDS011;5175;42.606;23.388;2022-10-16T08:20:21;8.40;;;7.60;;
10260;SDS011;5175;42.606;23.388;2022-10-16T08:22:47;10.37;;;7.10;;
10260;SDS011;5175;42.606;23.388;2022-10-16T08:25:14;8.40;;;7.50;;
10260;SDS011;5175;42.606;23.388;2022-10-16T08:27:41;7.93;;;7.03;;
10260;SDS011;5175;42.606;23.388;2022-10-16T08:30:08;8.10;;;7.40;;
10260;SDS011;5175;42.606;23.388;2022-10-16T08:32:37;9.03;;;6.70;;
10260;SDS011;5175;42.606;23.388;2022-10-16T08:35:04;8.73;;;6.77;;
10260;SDS011;5175;42.606;23.388;2022-10-16T08:37:31;7.27;;;6.10;;
10260;SDS011;5175;42.606;23.388;2022-10-16T08:39:59;8.87;;;6.53;;
10260;SDS011;5175;42.606;23.388;2022-10-16T08:42:31;9.20;;;6.80;;
10260;SDS011;5175;42.606;23.388;2022-10-16T08:45:15;11.03;;;6.67;;
10260;SDS011;5175;42.606;23.388;2022-10-16T08:48:00;7.57;;;6.40;;
10260;SDS011;5175;42.606;23.388;2022-10-16T08:50:36;7.40;;;6.70;;
10260;SDS011;5175;42.606;23.388;2022-10-16T08:53:05;7.93;;;5.77;;
10260;SDS011;5175;42.606;23.388;2022-10-16T08:55:34;4.63;;;4.23;;
10260;SDS011;5175;42.606;23.388;2022-10-16T08:58:11;5.33;;;4.47;;
10260;SDS011;5175;42.606;23.388;2022-10-16T09:00:39;5.80;;;4.60;;
10260;SDS011;5175;42.606;23.388;2022-10-16T09:03:10;5.73;;;5.23;;
10260;SDS011;5175;42.606;23.388;2022-10-16T09:05:55;6.27;;;5.13;;
10260;SDS011;5175;42.606;23.388;2022-10-16T09:08:34;6.17;;;5.00;;
10260;SDS011;5175;42.606;23.388;2022-10-16T09:11:09;6.07;;;5.07;;
10260;SDS011;5175;42.606;23.388;2022-10-16T09:13:43;4.53;;;4.13;;
10260;SDS011;5175;42.606;23.388;2022-10-16T09:16:18;5.15;;;4.30;;
10260;SDS011;5175;42.606;23.388;2022-10-16T09:18:53;5.43;;;4.63;;
10260;SDS011;5175;42.606;23.388;2022-10-16T09:21:27;8.68;;;4.93;;
10260;SDS011;5175;42.606;23.388;2022-10-16T09:23:57;6.43;;;4.32;;
10260;SDS011;5175;42.606;23.388;2022-10-16T09:26:26;5.47;;;4.10;;
10260;SDS011;5175;42.606;23.388;2022-10-16T09:28:53;4.05;;;3.65;;
10260;SDS011;5175;42.606;23.388;2022-10-16T09:31:20;5.47;;;4.07;;
10260;SDS011;5175;42.606;23.388;2022-10-16T09:33:50;5.35;;;3.95;;
10260;SDS011;5175;42.606;23.388;2022-10-16T09:36:24;4.25;;;3.85;;
10260;SDS011;5175;42.606;23.388;2022-10-16T09:39:01;4.25;;;3.85;;
10260;SDS011;5175;42.606;23.388;2022-10-16T09:41:30;4.00;;;3.60;;
10260;SDS011;5175;42.606;23.388;2022-10-16T09:44:00;4.32;;;3.70;;
10260;SDS011;5175;42.606;23.388;2022-10-16T09:46:29;4.30;;;3.90;;
10260;SDS011;5175;42.606;23.388;2022-10-16T09:48:59;4.15;;;3.75;;
10260;SDS011;5175;42.606;23.388;2022-10-16T09:51:28;4.90;;;3.80;;
10260;SDS011;5175;42.606;23.388;2022-10-16T09:53:57;4.40;;;4.00;;
10260;SDS011;5175;42.606;23.388;2022-10-16T09:56:26;5.40;;;4.78;;
10260;SDS011;5175;42.606;23.388;2022-10-16T09:58:55;6.22;;;4.30;;
10260;SDS011;5175;42.606;23.388;2022-10-16T10:01:24;4.32;;;3.92;;
10260;SDS011;5175;42.606;23.388;2022-10-16T10:03:56;5.88;;;4.15;;
10260;SDS011;5175;42.606;23.388;2022-10-16T10:06:29;5.80;;;4.15;;
10260;SDS011;5175;42.606;23.388;2022-10-16T10:09:02;4.63;;;4.13;;
10260;SDS011;5175;42.606;23.388;2022-10-16T10:11:41;5.45;;;3.95;;
10260;SDS011;5175;42.606;23.388;2022-10-16T10:14:16;5.50;;;4.05;;
10260;SDS011;5175;42.606;23.388;2022-10-16T10:16:52;6.47;;;4.47;;
10260;SDS011;5175;42.606;23.388;2022-10-16T10:19:29;5.30;;;4.80;;
10260;SDS011;5175;42.606;23.388;2022-10-16T10:21:55;5.82;;;4.07;;
10260;SDS011;5175;42.606;23.388;2022-10-16T10:24:22;6.22;;;4.47;;
10260;SDS011;5175;42.606;23.388;2022-10-16T10:26:51;5.93;;;4.15;;
10260;SDS011;5175;42.606;23.388;2022-10-16T10:29:31;5.32;;;4.40;;
10260;SDS011;5175;42.606;23.388;2022-10-16T10:32:11;5.75;;;4.32;;
10260;SDS011;5175;42.606;23.388;2022-10-16T10:37:40;4.55;;;4.15;;
10260;SDS011;5175;42.606;23.388;2022-10-16T10:40:24;5.97;;;4.13;;
10260;SDS011;5175;42.606;23.388;2022-10-16T10:42:59;5.13;;;4.50;;
10260;SDS011;5175;42.606;23.388;2022-10-16T10:45:36;4.82;;;4.32;;
10260;SDS011;5175;42.606;23.388;2022-10-16T10:48:19;4.88;;;4.38;;
10260;SDS011;5175;42.606;23.388;2022-10-16T10:50:56;4.97;;;4.28;;
10260;SDS011;5175;42.606;23.388;2022-10-16T10:53:33;5.80;;;4.38;;
10260;SDS011;5175;42.606;23.388;2022-10-16T10:56:09;5.45;;;4.47;;
10260;SDS011;5175;42.606;23.388;2022-10-16T11:01:41;8.00;;;4.35;;
10260;SDS011;5175;42.606;23.388;2022-10-16T11:04:25;5.38;;;4.70;;
10260;SDS011;5175;42.606;23.388;2022-10-16T11:07:05;5.32;;;4.55;;
10260;SDS011;5175;42.606;23.388;2022-10-16T11:09:41;4.60;;;4.20;;
10260;SDS011;5175;42.606;23.388;2022-10-16T11:12:12;4.13;;;3.42;;
10260;SDS011;5175;42.606;23.388;2022-10-16T11:14:46;5.25;;;3.70;;
10260;SDS011;5175;42.606;23.388;2022-10-16T11:17:22;3.83;;;3.53;;
10260;SDS011;5175;42.606;23.388;2022-10-16T11:19:53;4.18;;;3.35;;
10260;SDS011;5175;42.606;23.388;2022-10-16T11:22:27;3.70;;;3.40;;
10260;SDS011;5175;42.606;23.388;2022-10-16T11:25:02;4.55;;;3.90;;
10260;SDS011;5175;42.606;23.388;2022-10-16T11:27:39;3.78;;;3.40;;
10260;SDS011;5175;42.606;23.388;2022-10-16T11:30:12;6.32;;;3.80;;
10260;SDS011;5175;42.606;23.388;2022-10-16T11:32:45;3.60;;;3.30;;
10260;SDS011;5175;42.606;23.388;2022-10-16T11:35:19;3.35;;;2.60;;
10260;SDS011;5175;42.606;23.388;2022-10-16T11:37:51;3.22;;;2.90;;
10260;SDS011;5175;42.606;23.388;2022-10-16T11:40:24;3.08;;;2.58;;
10260;SDS011;5175;42.606;23.388;2022-10-16T11:42:56;2.67;;;2.42;;
10260;SDS011;5175;42.606;23.388;2022-10-16T11:45:30;4.30;;;2.17;;
10260;SDS011;5175;42.606;23.388;2022-10-16T11:48:04;3.15;;;2.60;;
10260;SDS011;5175;42.606;23.388;2022-10-16T11:50:39;2.90;;;2.30;;
10260;SDS011;5175;42.606;23.388;2022-10-16T11:53:16;3.22;;;2.22;;
10260;SDS011;5175;42.606;23.388;2022-10-16T11:55:49;2.90;;;2.58;;
10260;SDS011;5175;42.606;23.388;2022-10-16T11:58:21;4.68;;;2.80;;
10260;SDS011;5175;42.606;23.388;2022-10-16T12:00:56;2.47;;;2.28;;
10260;SDS011;5175;42.606;23.388;2022-10-16T12:03:29;3.53;;;2.67;;
10260;SDS011;5175;42.606;23.388;2022-10-16T12:06:06;2.33;;;2.10;;
10260;SDS011;5175;42.606;23.388;2022-10-16T12:08:47;4.25;;;2.30;;
10260;SDS011;5175;42.606;23.388;2022-10-16T12:11:22;2.53;;;2.22;;
10260;SDS011;5175;42.606;23.388;2022-10-16T12:14:04;2.80;;;2.30;;
10260;SDS011;5175;42.606;23.388;2022-10-16T12:16:33;2.30;;;2.10;;
10260;SDS011;5175;42.606;23.388;2022-10-16T12:19:07;2.85;;;2.30;;
10260;SDS011;5175;42.606;23.388;2022-10-16T12:21:37;3.47;;;2.50;;
10260;SDS011;5175;42.606;23.388;2022-10-16T12:24:05;2.45;;;2.25;;
10260;SDS011;5175;42.606;23.388;2022-10-16T12:26:33;2.40;;;2.20;;
10260;SDS011;5175;42.606;23.388;2022-10-16T12:29:13;2.80;;;2.47;;
10260;SDS011;5175;42.606;23.388;2022-10-16T12:31:48;4.25;;;2.30;;
10260;SDS011;5175;42.606;23.388;2022-10-16T12:34:20;3.15;;;2.67;;
10260;SDS011;5175;42.606;23.388;2022-10-16T12:36:49;3.22;;;2.25;;
10260;SDS011;5175;42.606;23.388;2022-10-16T12:39:21;3.75;;;2.40;;
10260;SDS011;5175;42.606;23.388;2022-10-16T12:42:00;4.13;;;2.30;;
10260;SDS011;5175;42.606;23.388;2022-10-16T12:44:32;3.72;;;2.33;;
10260;SDS011;5175;42.606;23.388;2022-10-16T12:47:00;3.10;;;2.40;;
10260;SDS011;5175;42.606;23.388;2022-10-16T12:49:31;4.15;;;2.30;;
10260;SDS011;5175;42.606;23.388;2022-10-16T12:52:01;2.63;;;2.17;;
10260;SDS011;5175;42.606;23.388;2022-10-16T12:54:31;2.95;;;2.15;;
10260;SDS011;5175;42.606;23.388;2022-10-16T12:59:53;5.30;;;2.50;;
10260;SDS011;5175;42.606;23.388;2022-10-16T13:02:45;2.80;;;2.17;;
10260;SDS011;5175;42.606;23.388;2022-10-16T13:05:25;2.80;;;2.20;;
10260;SDS011;5175;42.606;23.388;2022-10-16T13:08:02;2.15;;;2.00;;
10260;SDS011;5175;42.606;23.388;2022-10-16T13:10:46;2.63;;;2.10;;
10260;SDS011;5175;42.606;23.388;2022-10-16T13:13:39;2.20;;;2.00;;
10260;SDS011;5175;42.606;23.388;2022-10-16T13:16:22;2.80;;;2.25;;
10260;SDS011;5175;42.606;23.388;2022-10-16T13:19:00;2.47;;;1.95;;
10260;SDS011;5175;42.606;23.388;2022-10-16T13:21:41;2.53;;;2.28;;
10260;SDS011;5175;42.606;23.388;2022-10-16T13:24:18;2.40;;;2.20;;
10260;SDS011;5175;42.606;23.388;2022-10-16T13:26:55;2.45;;;2.20;;
10260;SDS011;5175;42.606;23.388;2022-10-16T13:29:29;3.15;;;2.50;;
10260;SDS011;5175;42.606;23.388;2022-10-16T13:31:57;2.70;;;2.25;;
10260;SDS011;5175;42.606;23.388;2022-10-16T13:34:25;2.47;;;2.28;;
10260;SDS011;5175;42.606;23.388;2022-10-16T13:36:53;2.30;;;2.10;;
10260;SDS011;5175;42.606;23.388;2022-10-16T13:39:23;2.60;;;2.30;;
10260;SDS011;5175;42.606;23.388;2022-10-16T13:42:03;4.60;;;2.35;;
10260;SDS011;5175;42.606;23.388;2022-10-16T13:44:34;2.50;;;2.25;;
10260;SDS011;5175;42.606;23.388;2022-10-16T13:47:05;2.83;;;2.28;;
10260;SDS011;5175;42.606;23.388;2022-10-16T13:49:41;2.38;;;2.10;;
10260;SDS011;5175;42.606;23.388;2022-10-16T13:52:15;3.15;;;2.25;;
10260;SDS011;5175;42.606;23.388;2022-10-16T13:54:44;2.85;;;2.20;;
10260;SDS011;5175;42.606;23.388;2022-10-16T13:57:13;2.70;;;2.50;;
10260;SDS011;5175;42.606;23.388;2022-10-16T13:59:41;2.75;;;2.40;;
10260;SDS011;5175;42.606;23.388;2022-10-16T14:02:10;2.53;;;2.28;;
10260;SDS011;5175;42.606;23.388;2022-10-16T14:04:44;3.92;;;2.42;;
10260;SDS011;5175;42.606;23.388;2022-10-16T14:07:13;2.60;;;2.40;;
10260;SDS011;5175;42.606;23.388;2022-10-16T14:09:47;2.80;;;2.60;;
10260;SDS011;5175;42.606;23.388;2022-10-16T14:12:16;2.85;;;2.45;;
10260;SDS011;5175;42.606;23.388;2022-10-16T14:14:45;2.40;;;2.20;;
10260;SDS011;5175;42.606;23.388;2022-10-16T14:17:14;2.55;;;2.35;;
10260;SDS011;5175;42.606;23.388;2022-10-16T14:19:44;2.88;;;2.30;;
10260;SDS011;5175;42.606;23.388;2022-10-16T14:22:22;3.00;;;2.22;;
10260;SDS011;5175;42.606;23.388;2022-10-16T14:24:55;3.97;;;2.42;;
10260;SDS011;5175;42.606;23.388;2022-10-16T14:27:26;2.90;;;2.20;;
10260;SDS011;5175;42.606;23.388;2022-10-16T14:30:12;2.40;;;2.20;;
10260;SDS011;5175;42.606;23.388;2022-10-16T14:32:52;4.00;;;2.30;;
10260;SDS011;5175;42.606;23.388;2022-10-16T14:35:24;2.50;;;2.30;;
10260;SDS011;5175;42.606;23.388;2022-10-16T14:37:53;2.95;;;2.13;;
10260;SDS011;5175;42.606;23.388;2022-10-16T14:40:22;3.30;;;2.58;;
10260;SDS011;5175;42.606;23.388;2022-10-16T14:42:52;2.88;;;2.58;;
10260;SDS011;5175;42.606;23.388;2022-10-16T14:45:20;3.17;;;2.45;;
10260;SDS011;5175;42.606;23.388;2022-10-16T14:47:49;2.65;;;2.38;;
10260;SDS011;5175;42.606;23.388;2022-10-16T14:50:18;2.55;;;2.33;;
10260;SDS011;5175;42.606;23.388;2022-10-16T14:52:45;5.32;;;2.20;;
10260;SDS011;5175;42.606;23.388;2022-10-16T14:55:12;2.97;;;2.40;;
10260;SDS011;5175;42.606;23.388;2022-10-16T14:57:39;2.30;;;2.10;;
10260;SDS011;5175;42.606;23.388;2022-10-16T15:00:13;2.92;;;2.40;;
10260;SDS011;5175;42.606;23.388;2022-10-16T15:02:43;2.45;;;2.20;;
10260;SDS011;5175;42.606;23.388;2022-10-16T15:05:12;4.68;;;2.45;;
10260;SDS011;5175;42.606;23.388;2022-10-16T15:07:40;3.10;;;2.63;;
10260;SDS011;5175;42.606;23.388;2022-10-16T15:10:07;6.22;;;4.47;;
10260;SDS011;5175;42.606;23.388;2022-10-16T15:12:34;6.40;;;4.00;;
10260;SDS011;5175;42.606;23.388;2022-10-16T15:15:01;4.75;;;3.88;;